Time;durP1;ratioP1;P1;durP2;ratioP2;P2;SDS_P1;SDS_P2;PMS_P1;PMS_P2;Temp;Humidity;BMP_temperature;BMP_pressure;BME280_temperature;BME280_humidity;BME280_pressure;Samples;Min_cycle;Max_cycle;Signal;HPM_P1;HPM_P2
2021/07/30 00:02:08;;;;;;;;;;;18.50;64.30;;;;;;5008311;28;19909;-83
2021/07/30 00:04:34;;;;;;;;;;;18.40;63.20;;;;;;5011857;28;19967;-82
2021/07/30 00:06:59;;;;;;;;;;;18.40;63.40;;;;;;5009577;28;19967;-82
2021/07/30 00:09:25;;;;;;;;;;;18.50;64.10;;;;;;5009305;28;19910;-82
2021/07/30 00:11:50;;;;;;;;;;;18.50;64.40;;;;;;5007168;28;19909;-82
2021/07/30 00:14:16;;;;;;;;;;;18.60;63.70;;;;;;4996979;28;19968;-83
2021/07/30 00:16:41;;;;;;;;;;;18.60;63.00;;;;;;5011649;28;19905;-82
2021/07/30 00:19:07;;;;;;;;;;;18.60;63.70;;;;;;5010546;28;19912;-82
2021/07/30 00:21:32;;;;;;;;;;;18.50;64.30;;;;;;5010275;28;19920;-81
2021/07/30 00:23:58;;;;;;;;;;;18.60;63.50;;;;;;5009380;28;19936;-81
2021/07/30 00:26:23;;;;;;;;;;;18.50;63.90;;;;;;5009834;28;19971;-81
2021/07/30 00:28:49;;;;;;;;;;;18.60;64.20;;;;;;5010150;28;20115;-82
2021/07/30 00:31:15;;;;;;;;;;;18.50;63.80;;;;;;5009182;28;19924;-82
2021/07/30 00:33:40;;;;;;;;;;;18.60;64.30;;;;;;5010492;28;19983;-82
2021/07/30 00:36:06;;;;;;;;;;;18.60;64.80;;;;;;5009134;28;19947;-82
2021/07/30 00:38:31;;;;;;;;;;;18.50;65.10;;;;;;5010858;28;20024;-82
2021/07/30 00:40:57;;;;;;;;;;;18.50;63.70;;;;;;5009934;28;19917;-81
2021/07/30 00:43:22;;;;;;;;;;;18.50;64.70;;;;;;5013812;28;19909;-81
2021/07/30 00:45:53;;;;;;;;;;;18.50;64.90;;;;;;5011958;28;19957;-82
2021/07/30 00:48:19;;;;;;;;;;;18.50;64.10;;;;;;5007671;28;19909;-81
2021/07/30 00:50:44;;;;;;;;;;;18.50;64.20;;;;;;5002073;28;19910;-82
2021/07/30 00:53:10;;;;;;;;;;;18.40;63.70;;;;;;5004150;28;19972;-83
2021/07/30 00:55:36;;;;;;;;;;;18.30;64.80;;;;;;5015398;28;19917;-82
2021/07/30 00:58:02;;;;;;;;;;;18.30;67.00;;;;;;5007648;28;19909;-81
2021/07/30 01:00:28;;;;;;;;;;;18.20;65.50;;;;;;5014210;28;20278;-82
2021/07/30 01:02:53;;;;;;;;;;;18.30;65.90;;;;;;5014027;28;19921;-81
2021/07/30 01:05:19;;;;;;;;;;;18.20;66.40;;;;;;5014211;28;19906;-81
2021/07/30 01:07:44;;;;;;;;;;;18.30;65.80;;;;;;5014567;28;19916;-83
2021/07/30 01:10:10;;;;;;;;;;;18.30;65.40;;;;;;5007947;28;19909;-82
2021/07/30 01:12:35;;;;;;;;;;;18.30;65.50;;;;;;5012380;28;19910;-82
2021/07/30 01:15:01;;;;;;;;;;;18.30;65.10;;;;;;5012522;28;20008;-82
2021/07/30 01:17:27;;;;;;;;;;;18.30;65.00;;;;;;5012512;28;19909;-81
2021/07/30 01:19:53;;;;;;;;;;;18.30;65.90;;;;;;5013342;28;19957;-81
2021/07/30 01:22:41;;;;;;;;;;;18.30;65.80;;;;;;5014161;28;19905;-81
2021/07/30 01:25:07;;;;;;;;;;;18.40;66.40;;;;;;5003312;28;19909;-81
2021/07/30 01:27:33;;;;;;;;;;;18.40;66.30;;;;;;5011391;28;19920;-82
2021/07/30 01:29:58;;;;;;;;;;;18.40;66.00;;;;;;5012346;28;19921;-81
2021/07/30 01:32:24;;;;;;;;;;;18.40;65.90;;;;;;5012845;28;20396;-81
2021/07/30 01:34:49;;;;;;;;;;;18.40;66.20;;;;;;5014361;28;19917;-81
2021/07/30 01:37:15;;;;;;;;;;;18.40;65.80;;;;;;5013240;28;19933;-81
2021/07/30 01:39:40;;;;;;;;;;;18.50;66.60;;;;;;5012314;28;20715;-82
2021/07/30 01:42:06;;;;;;;;;;;18.50;66.40;;;;;;5012329;28;20356;-81
2021/07/30 01:44:31;;;;;;;;;;;18.50;66.50;;;;;;5011107;28;20386;-82
2021/07/30 01:46:56;;;;;;;;;;;18.40;65.80;;;;;;5011665;28;19918;-81
2021/07/30 01:49:22;;;;;;;;;;;18.40;67.50;;;;;;5010891;28;19917;-82
2021/07/30 01:51:48;;;;;;;;;;;18.40;66.40;;;;;;5001357;28;19913;-81
2021/07/30 01:54:14;;;;;;;;;;;18.40;67.10;;;;;;5006006;28;20337;-82
2021/07/30 01:56:43;;;;;;;;;;;18.40;66.30;;;;;;5011788;28;19989;-81
2021/07/30 01:59:08;;;;;;;;;;;18.40;66.20;;;;;;5011902;28;20000;-81
2021/07/30 02:01:34;;;;;;;;;;;18.40;66.20;;;;;;5015221;28;19956;-81
2021/07/30 02:04:00;;;;;;;;;;;18.40;66.10;;;;;;5010510;28;19909;-81
2021/07/30 02:06:25;;;;;;;;;;;18.40;67.90;;;;;;5011181;28;19945;-82
2021/07/30 02:08:51;;;;;;;;;;;18.40;67.60;;;;;;5010303;28;19909;-82
2021/07/30 02:11:16;;;;;;;;;;;18.40;67.70;;;;;;5010371;28;20290;-82
2021/07/30 02:16:26;;;;;;;;;;;18.40;67.10;;;;;;5014620;28;19917;-81
2021/07/30 02:18:52;;;;;;;;;;;18.40;66.90;;;;;;5011522;28;19905;-81
2021/07/30 02:21:17;;;;;;;;;;;18.40;68.80;;;;;;5005519;28;19909;-82
2021/07/30 02:23:43;;;;;;;;;;;18.40;68.90;;;;;;5011333;28;20374;-82
2021/07/30 02:26:09;;;;;;;;;;;18.40;69.20;;;;;;5011267;28;22794;-81
2021/07/30 02:28:35;;;;;;;;;;;18.30;67.80;;;;;;5007713;28;19915;-81
2021/07/30 02:31:00;;;;;;;;;;;18.30;70.00;;;;;;5012478;28;20337;-82
2021/07/30 02:33:26;;;;;;;;;;;18.30;68.60;;;;;;5010688;28;20364;-82
2021/07/30 02:35:51;;;;;;;;;;;18.30;69.10;;;;;;5010683;28;19916;-81
2021/07/30 02:38:17;;;;;;;;;;;18.30;68.50;;;;;;5012155;28;19913;-82
2021/07/30 02:40:42;;;;;;;;;;;18.20;69.30;;;;;;5013035;28;20107;-82
2021/07/30 02:43:08;;;;;;;;;;;18.30;70.00;;;;;;5011986;28;19960;-82
2021/07/30 02:45:33;;;;;;;;;;;18.30;70.00;;;;;;5010676;28;19909;-81
2021/07/30 02:47:59;;;;;;;;;;;18.30;69.80;;;;;;5009368;28;19914;-82
2021/07/30 02:50:24;;;;;;;;;;;18.30;69.60;;;;;;5010250;28;19906;-82
2021/07/30 02:52:50;;;;;;;;;;;18.30;70.60;;;;;;5012816;28;19983;-82
2021/07/30 02:55:15;;;;;;;;;;;18.20;70.70;;;;;;5010687;28;19916;-82
2021/07/30 02:57:41;;;;;;;;;;;18.30;70.20;;;;;;5007585;28;19909;-81
2021/07/30 03:00:06;;;;;;;;;;;18.20;70.30;;;;;;5010663;28;19934;-81
2021/07/30 03:02:32;;;;;;;;;;;18.20;70.80;;;;;;5005109;28;20499;-81
2021/07/30 03:04:57;;;;;;;;;;;18.20;71.00;;;;;;5010922;28;19924;-81
2021/07/30 03:07:23;;;;;;;;;;;18.10;71.00;;;;;;5014014;28;20009;-81
2021/07/30 03:09:48;;;;;;;;;;;18.00;71.30;;;;;;5011179;28;19909;-81
2021/07/30 03:12:14;;;;;;;;;;;18.00;71.00;;;;;;5004934;28;19910;-81
2021/07/30 03:14:39;;;;;;;;;;;18.00;73.30;;;;;;4997910;28;20418;-81
2021/07/30 03:17:06;;;;;;;;;;;17.90;73.90;;;;;;5011556;28;19920;-81
2021/07/30 03:19:32;;;;;;;;;;;17.90;74.80;;;;;;5024473;28;19999;-82
2021/07/30 03:21:57;;;;;;;;;;;17.90;73.30;;;;;;5011597;28;19956;-82
2021/07/30 03:24:23;;;;;;;;;;;17.90;72.80;;;;;;5010199;28;19956;-81
2021/07/30 03:26:48;;;;;;;;;;;17.90;72.80;;;;;;5006813;28;19914;-81
2021/07/30 03:29:14;;;;;;;;;;;17.90;73.70;;;;;;5008833;28;20389;-81
2021/07/30 03:31:39;;;;;;;;;;;17.90;73.50;;;;;;5012345;28;20402;-82
2021/07/30 03:34:05;;;;;;;;;;;17.90;72.30;;;;;;5010337;28;19917;-82
2021/07/30 03:36:31;;;;;;;;;;;17.90;74.10;;;;;;5011211;28;19967;-82
2021/07/30 03:38:57;;;;;;;;;;;17.90;73.70;;;;;;5008670;28;19991;-81
2021/07/30 03:41:23;;;;;;;;;;;17.90;74.40;;;;;;5006909;28;20370;-83
2021/07/30 03:43:49;;;;;;;;;;;17.90;73.10;;;;;;5009023;28;19932;-81
2021/07/30 03:46:14;;;;;;;;;;;17.90;74.30;;;;;;5005151;28;20270;-81
2021/07/30 03:48:40;;;;;;;;;;;17.90;73.30;;;;;;5007986;28;20039;-81
2021/07/30 03:51:05;;;;;;;;;;;17.90;74.20;;;;;;5008222;28;19916;-81
2021/07/30 03:53:31;;;;;;;;;;;17.90;75.10;;;;;;5010906;28;19942;-82
2021/07/30 03:55:56;;;;;;;;;;;17.90;74.10;;;;;;5009535;28;20369;-80
2021/07/30 03:58:22;;;;;;;;;;;17.80;75.50;;;;;;5010663;28;19912;-81
2021/07/30 04:00:47;;;;;;;;;;;17.60;76.30;;;;;;5009276;28;19910;-80
2021/07/30 04:03:13;;;;;;;;;;;17.40;75.40;;;;;;5008183;28;20070;-80
2021/07/30 04:05:38;;;;;;;;;;;17.30;76.70;;;;;;5008725;28;19910;-80
2021/07/30 04:08:04;;;;;;;;;;;17.20;75.50;;;;;;5008176;28;19909;-80
2021/07/30 04:10:30;;;;;;;;;;;17.10;75.40;;;;;;5010819;28;19956;-80
2021/07/30 04:12:56;;;;;;;;;;;17.00;74.90;;;;;;5010616;28;19906;-81
2021/07/30 04:15:21;;;;;;;;;;;16.90;74.40;;;;;;5008612;28;19910;-82
2021/07/30 04:17:48;;;;;;;;;;;16.80;74.20;;;;;;5007463;28;20366;-81
2021/07/30 04:20:14;;;;;;;;;;;16.70;74.20;;;;;;5009326;28;20005;-81
2021/07/30 04:22:39;;;;;;;;;;;16.70;74.40;;;;;;5010742;28;19959;-80
2021/07/30 04:25:05;;;;;;;;;;;16.60;73.70;;;;;;5010099;28;19906;-82
2021/07/30 04:27:30;;;;;;;;;;;16.50;72.80;;;;;;5009104;28;19913;-81
2021/07/30 04:29:56;;;;;;;;;;;16.40;73.10;;;;;;5009335;28;19909;-81
2021/07/30 04:32:22;;;;;;;;;;;16.30;72.60;;;;;;5007489;28;19928;-80
2021/07/30 04:34:47;;;;;;;;;;;16.20;72.50;;;;;;5011491;28;20283;-81
2021/07/30 04:37:13;;;;;;;;;;;16.20;72.70;;;;;;5004656;28;19913;-80
2021/07/30 04:39:38;;;;;;;;;;;16.10;72.40;;;;;;5008953;28;20000;-81
2021/07/30 04:42:04;;;;;;;;;;;16.10;73.20;;;;;;5009121;28;19932;-81
2021/07/30 04:44:31;;;;;;;;;;;16.10;72.90;;;;;;5009121;28;20285;-81
2021/07/30 04:46:57;;;;;;;;;;;16.00;72.90;;;;;;5008638;28;19909;-80
2021/07/30 04:49:22;;;;;;;;;;;15.90;74.00;;;;;;5011276;28;19928;-81
2021/07/30 04:51:48;;;;;;;;;;;15.90;73.20;;;;;;5008720;28;19940;-80
2021/07/30 04:54:13;;;;;;;;;;;15.90;73.10;;;;;;5010171;28;19921;-81
2021/07/30 04:56:39;;;;;;;;;;;15.80;72.70;;;;;;5009148;28;19910;-80
2021/07/30 04:59:04;;;;;;;;;;;15.80;72.70;;;;;;5009568;28;20386;-79
2021/07/30 05:01:30;;;;;;;;;;;15.80;74.10;;;;;;5007575;28;20318;-81
2021/07/30 05:03:57;;;;;;;;;;;15.70;73.00;;;;;;5008681;28;19909;-80
2021/07/30 05:06:23;;;;;;;;;;;15.70;73.80;;;;;;5003403;28;19917;-80
2021/07/30 05:08:48;;;;;;;;;;;15.70;74.00;;;;;;5008523;28;19914;-80
2021/07/30 05:11:14;;;;;;;;;;;15.60;74.10;;;;;;5009463;28;19910;-81
2021/07/30 05:13:40;;;;;;;;;;;15.60;73.20;;;;;;5010821;28;19972;-84
2021/07/30 05:16:06;;;;;;;;;;;15.60;73.50;;;;;;5007485;28;19910;-81
2021/07/30 05:18:32;;;;;;;;;;;15.60;73.70;;;;;;5003289;28;19910;-81
2021/07/30 05:20:57;;;;;;;;;;;15.60;73.20;;;;;;5007267;28;19924;-82
2021/07/30 05:23:23;;;;;;;;;;;15.70;73.60;;;;;;4995691;28;19913;-79
2021/07/30 05:25:52;;;;;;;;;;;15.70;72.60;;;;;;5010273;28;19906;-80
2021/07/30 05:28:18;;;;;;;;;;;15.70;73.30;;;;;;5011141;28;19965;-80
2021/07/30 05:30:43;;;;;;;;;;;15.70;73.60;;;;;;5009597;28;19936;-79
2021/07/30 05:33:09;;;;;;;;;;;15.70;73.90;;;;;;5011515;28;19964;-78
2021/07/30 05:35:34;;;;;;;;;;;15.70;74.30;;;;;;5011518;28;19920;-80
2021/07/30 05:38:00;;;;;;;;;;;15.70;73.80;;;;;;5010727;28;19937;-81
2021/07/30 05:40:25;;;;;;;;;;;15.80;74.00;;;;;;5013927;28;19936;-80
2021/07/30 05:42:53;;;;;;;;;;;15.90;74.50;;;;;;5011059;28;19910;-81
2021/07/30 05:45:19;;;;;;;;;;;15.90;73.50;;;;;;5013090;28;19909;-81
2021/07/30 05:47:46;;;;;;;;;;;15.90;73.40;;;;;;5011952;28;19909;-82
2021/07/30 05:50:12;;;;;;;;;;;16.00;73.50;;;;;;5011991;28;19910;-81
2021/07/30 05:52:37;;;;;;;;;;;16.10;73.30;;;;;;5013377;28;19988;-81
2021/07/30 05:55:03;;;;;;;;;;;16.10;73.30;;;;;;5005722;28;20414;-80
2021/07/30 05:57:31;;;;;;;;;;;16.20;73.20;;;;;;5011525;28;20366;-80
2021/07/30 05:59:57;;;;;;;;;;;16.20;74.10;;;;;;5011552;28;20252;-80
2021/07/30 06:02:22;;;;;;;;;;;16.20;73.60;;;;;;5010742;28;19977;-80
2021/07/30 06:04:47;;;;;;;;;;;16.30;73.40;;;;;;5013674;28;19905;-80
2021/07/30 06:07:13;;;;;;;;;;;16.40;73.30;;;;;;5013137;28;20337;-81
2021/07/30 06:09:38;;;;;;;;;;;16.40;73.30;;;;;;5009551;28;19910;-82
2021/07/30 06:12:04;;;;;;;;;;;16.60;73.00;;;;;;5012422;28;19995;-81
2021/07/30 06:14:29;;;;;;;;;;;16.60;72.70;;;;;;5011188;28;20405;-82
2021/07/30 06:16:56;;;;;;;;;;;16.60;72.40;;;;;;5012494;28;19937;-80
2021/07/30 06:19:22;;;;;;;;;;;16.70;72.50;;;;;;5013571;28;20003;-82
2021/07/30 06:21:47;;;;;;;;;;;16.70;73.10;;;;;;5010710;28;19945;-82
2021/07/30 06:24:13;;;;;;;;;;;16.80;72.00;;;;;;5011419;28;19916;-83
2021/07/30 06:26:38;;;;;;;;;;;16.70;71.20;;;;;;5011672;28;19909;-81
2021/07/30 06:29:03;;;;;;;;;;;16.70;72.10;;;;;;4995135;28;20331;-82
2021/07/30 06:31:29;;;;;;;;;;;16.70;71.90;;;;;;5013761;28;19918;-82
2021/07/30 06:33:54;;;;;;;;;;;16.60;71.60;;;;;;5010833;28;19917;-82
2021/07/30 06:36:20;;;;;;;;;;;16.60;72.00;;;;;;5004163;28;19910;-80
2021/07/30 06:38:46;;;;;;;;;;;16.50;71.10;;;;;;5009929;28;20321;-74
2021/07/30 06:41:12;;;;;;;;;;;16.50;72.10;;;;;;5004477;28;19911;-74
2021/07/30 06:43:37;;;;;;;;;;;16.60;73.40;;;;;;4998498;28;19910;-76
2021/07/30 06:46:03;;;;;;;;;;;16.50;73.50;;;;;;4998829;28;19910;-76
2021/07/30 06:48:28;;;;;;;;;;;16.50;74.80;;;;;;4994985;28;20735;-76
2021/07/30 06:50:54;;;;;;;;;;;16.40;74.90;;;;;;4995809;28;19920;-75
2021/07/30 06:53:20;;;;;;;;;;;16.30;75.10;;;;;;4994708;28;19924;-75
2021/07/30 06:55:45;;;;;;;;;;;16.30;75.20;;;;;;4994483;28;19909;-75
2021/07/30 06:58:11;;;;;;;;;;;16.30;75.10;;;;;;4996122;28;20371;-75
2021/07/30 07:00:36;;;;;;;;;;;16.30;75.00;;;;;;5006838;28;19913;-75
2021/07/30 07:03:02;;;;;;;;;;;16.30;75.30;;;;;;5010242;28;19963;-75
2021/07/30 07:05:27;;;;;;;;;;;16.20;75.90;;;;;;5010113;28;20424;-75
2021/07/30 07:07:53;;;;;;;;;;;16.20;75.20;;;;;;5012212;28;20423;-75
2021/07/30 07:10:18;;;;;;;;;;;16.20;75.50;;;;;;5005765;28;19910;-76
2021/07/30 07:12:44;;;;;;;;;;;16.20;75.90;;;;;;4995252;28;19937;-75
2021/07/30 07:15:10;;;;;;;;;;;16.10;75.80;;;;;;5003334;28;19918;-73
2021/07/30 07:17:35;;;;;;;;;;;16.00;76.20;;;;;;5007622;28;20282;-74
2021/07/30 07:20:01;;;;;;;;;;;16.00;76.30;;;;;;5009035;28;20519;-74
2021/07/30 07:22:28;;;;;;;;;;;16.00;76.70;;;;;;5019736;28;19927;-74
2021/07/30 07:24:55;;;;;;;;;;;16.00;76.90;;;;;;5005846;28;19975;-73
2021/07/30 07:27:21;;;;;;;;;;;16.00;76.70;;;;;;5012731;28;19956;-73
2021/07/30 07:29:46;;;;;;;;;;;16.10;76.80;;;;;;5011051;28;19913;-74
2021/07/30 07:32:12;;;;;;;;;;;16.20;76.50;;;;;;5009485;28;19941;-75
2021/07/30 07:34:37;;;;;;;;;;;16.20;76.60;;;;;;5013753;28;20285;-74
2021/07/30 07:37:03;;;;;;;;;;;16.20;76.40;;;;;;5005192;28;20004;-74
2021/07/30 07:39:28;;;;;;;;;;;16.30;76.40;;;;;;5005399;28;19988;-74
2021/07/30 07:41:54;;;;;;;;;;;16.30;75.50;;;;;;5009168;28;20374;-74
2021/07/30 07:44:19;;;;;;;;;;;16.40;76.00;;;;;;5009629;28;19910;-73
2021/07/30 07:46:47;;;;;;;;;;;16.50;75.80;;;;;;5012272;28;19912;-73
2021/07/30 07:49:12;;;;;;;;;;;16.50;75.20;;;;;;5010885;28;19909;-74
2021/07/30 07:51:38;;;;;;;;;;;16.60;74.50;;;;;;5009225;28;19962;-74
2021/07/30 07:54:03;;;;;;;;;;;16.70;75.60;;;;;;5016662;28;19921;-73
2021/07/30 07:56:29;;;;;;;;;;;16.70;74.00;;;;;;5010772;28;19916;-74
2021/07/30 07:58:55;;;;;;;;;;;16.70;74.20;;;;;;5009630;28;20275;-74
2021/07/30 08:01:20;;;;;;;;;;;16.80;73.70;;;;;;5011391;28;19901;-75
2021/07/30 08:03:46;;;;;;;;;;;16.90;73.70;;;;;;5009116;28;20404;-74
2021/07/30 08:06:18;;;;;;;;;;;17.00;74.50;;;;;;5009243;28;19909;-74
2021/07/30 08:08:44;;;;;;;;;;;17.10;73.00;;;;;;5009942;28;19909;-74
2021/07/30 08:11:09;;;;;;;;;;;17.10;72.30;;;;;;4997597;28;19916;-74
2021/07/30 08:13:35;;;;;;;;;;;17.10;71.60;;;;;;5012675;28;19917;-75
2021/07/30 08:16:00;;;;;;;;;;;17.10;72.00;;;;;;5008890;28;20366;-75
2021/07/30 08:18:26;;;;;;;;;;;17.20;72.20;;;;;;5009205;28;19960;-74
2021/07/30 08:20:51;;;;;;;;;;;17.40;73.00;;;;;;5008949;28;19921;-75
2021/07/30 08:23:17;;;;;;;;;;;17.70;71.80;;;;;;5009853;28;20385;-74
2021/07/30 08:25:42;;;;;;;;;;;17.80;70.70;;;;;;5012161;28;19905;-75
2021/07/30 08:28:08;;;;;;;;;;;17.80;69.50;;;;;;5008453;28;19961;-75
2021/07/30 08:30:33;;;;;;;;;;;17.90;71.00;;;;;;5008213;28;20414;-75
2021/07/30 08:32:59;;;;;;;;;;;18.00;69.40;;;;;;5008775;28;19921;-75
2021/07/30 08:35:24;;;;;;;;;;;18.00;68.10;;;;;;5008189;28;20421;-75
2021/07/30 08:37:50;;;;;;;;;;;18.00;68.10;;;;;;5010588;28;19928;-73
2021/07/30 08:40:15;;;;;;;;;;;17.90;67.60;;;;;;5007901;28;20393;-77
2021/07/30 08:42:41;;;;;;;;;;;18.00;68.10;;;;;;5007607;28;19909;-76
2021/07/30 08:45:07;;;;;;;;;;;18.30;67.70;;;;;;5009929;28;19913;-77
2021/07/30 08:47:32;;;;;;;;;;;18.50;66.70;;;;;;5010464;28;19917;-76
2021/07/30 08:49:58;;;;;;;;;;;18.40;65.70;;;;;;5010095;28;19918;-76
2021/07/30 08:52:44;;;;;;;;;;;18.40;65.60;;;;;;5006641;28;19914;-75
2021/07/30 08:55:11;;;;;;;;;;;18.60;66.60;;;;;;5011243;28;19917;-76
2021/07/30 08:57:36;;;;;;;;;;;18.50;66.10;;;;;;5006004;28;19909;-76
2021/07/30 09:00:06;;;;;;;;;;;18.50;66.30;;;;;;5006292;28;19936;-76
2021/07/30 09:02:32;;;;;;;;;;;18.50;66.00;;;;;;5004198;28;19964;-75
2021/07/30 09:04:57;;;;;;;;;;;18.60;64.90;;;;;;4999962;28;19913;-75
2021/07/30 09:07:37;;;;;;;;;;;18.50;65.80;;;;;;5015702;28;19909;-75
2021/07/30 09:10:03;;;;;;;;;;;18.50;65.80;;;;;;5014360;28;19956;-78
2021/07/30 09:12:30;;;;;;;;;;;18.50;65.20;;;;;;5013666;28;19913;-75
2021/07/30 09:14:56;;;;;;;;;;;18.50;66.20;;;;;;5011693;28;19964;-76
2021/07/30 09:17:37;;;;;;;;;;;18.50;65.00;;;;;;5012646;28;19910;-75
2021/07/30 09:20:03;;;;;;;;;;;18.70;64.80;;;;;;5013159;28;20684;-75
2021/07/30 09:22:28;;;;;;;;;;;18.70;64.90;;;;;;4997351;28;20005;-74
2021/07/30 09:25:01;;;;;;;;;;;18.70;63.60;;;;;;5011586;28;19914;-75
2021/07/30 09:27:32;;;;;;;;;;;18.70;64.60;;;;;;5006402;28;19909;-75
2021/07/30 09:30:11;;;;;;;;;;;18.80;63.40;;;;;;5008806;28;19909;-76
2021/07/30 09:32:37;;;;;;;;;;;18.70;63.60;;;;;;5012153;28;19964;-77
2021/07/30 09:35:02;;;;;;;;;;;18.80;65.20;;;;;;5011546;28;19968;-75
2021/07/30 09:37:28;;;;;;;;;;;19.00;64.50;;;;;;5013387;28;19905;-75
2021/07/30 09:39:53;;;;;;;;;;;19.10;63.60;;;;;;5012244;28;20354;-75
2021/07/30 09:42:23;;;;;;;;;;;19.30;64.40;;;;;;5011959;28;19909;-75
2021/07/30 09:44:55;;;;;;;;;;;19.50;62.70;;;;;;5012077;28;19913;-74
2021/07/30 09:47:32;;;;;;;;;;;19.50;62.30;;;;;;5009745;28;19948;-75
2021/07/30 09:50:04;;;;;;;;;;;19.50;62.10;;;;;;4997028;28;19917;-76
2021/07/30 09:52:34;;;;;;;;;;;19.50;63.90;;;;;;5000031;28;19910;-74
2021/07/30 09:55:00;;;;;;;;;;;19.40;62.40;;;;;;4997199;28;19918;-75
2021/07/30 09:57:28;;;;;;;;;;;19.40;63.30;;;;;;4997320;28;19914;-76
2021/07/30 10:00:14;;;;;;;;;;;19.60;63.00;;;;;;5003658;28;19909;-74
2021/07/30 10:02:43;;;;;;;;;;;19.80;63.60;;;;;;4998812;28;19917;-75
2021/07/30 10:05:12;;;;;;;;;;;19.80;63.40;;;;;;5007486;28;20255;-75
2021/07/30 10:07:39;;;;;;;;;;;19.70;63.30;;;;;;4997510;28;19906;-74
2021/07/30 10:12:32;;;;;;;;;;;19.70;63.60;;;;;;4997122;28;19910;-74
2021/07/30 10:14:59;;;;;;;;;;;19.70;63.40;;;;;;4998424;28;20334;-75
2021/07/30 10:17:37;;;;;;;;;;;19.90;64.30;;;;;;5011482;28;19936;-75
2021/07/30 10:20:04;;;;;;;;;;;20.00;63.20;;;;;;5010090;28;19917;-76
2021/07/30 10:22:32;;;;;;;;;;;20.00;62.10;;;;;;5014457;28;19916;-76
2021/07/30 10:24:58;;;;;;;;;;;19.90;62.20;;;;;;5010944;28;19909;-77
2021/07/30 10:27:24;;;;;;;;;;;19.70;62.40;;;;;;5010710;28;19910;-74
2021/07/30 10:29:59;;;;;;;;;;;19.60;62.80;;;;;;5011102;28;19914;-73
2021/07/30 10:32:43;;;;;;;;;;;19.80;63.30;;;;;;5010802;28;20374;-73
2021/07/30 10:35:09;;;;;;;;;;;20.10;64.60;;;;;;5006141;28;19925;-75
2021/07/30 10:37:36;;;;;;;;;;;20.60;62.70;;;;;;5013651;28;19996;-74
2021/07/30 10:40:16;;;;;;;;;;;20.50;61.00;;;;;;5012613;28;19917;-73
2021/07/30 10:43:04;;;;;;;;;;;20.60;60.40;;;;;;5010871;28;20321;-73
2021/07/30 10:45:30;;;;;;;;;;;20.70;59.60;;;;;;5011983;28;19979;-75
2021/07/30 10:48:11;;;;;;;;;;;20.80;59.70;;;;;;5007531;28;19916;-75
2021/07/30 10:50:47;;;;;;;;;;;21.00;59.60;;;;;;5010677;28;19913;-75
2021/07/30 10:55:57;;;;;;;;;;;20.80;58.20;;;;;;5009248;28;20275;-75
2021/07/30 10:58:42;;;;;;;;;;;21.00;58.40;;;;;;5005360;28;20423;-76
2021/07/30 11:01:08;;;;;;;;;;;20.60;57.80;;;;;;4997041;28;19913;-76
2021/07/30 11:03:49;;;;;;;;;;;20.60;58.70;;;;;;5000741;28;19910;-74
2021/07/30 11:06:15;;;;;;;;;;;20.60;58.70;;;;;;5008197;28;19914;-75
2021/07/30 11:09:05;;;;;;;;;;;20.40;58.20;;;;;;5010489;28;19916;-74
2021/07/30 11:11:40;;;;;;;;;;;20.30;58.00;;;;;;5010221;28;19932;-75
2021/07/30 11:14:13;;;;;;;;;;;20.10;57.70;;;;;;5009647;28;19917;-77
2021/07/30 11:16:40;;;;;;;;;;;20.00;58.70;;;;;;5009630;28;19909;-83
2021/07/30 11:19:05;;;;;;;;;;;19.70;59.00;;;;;;5010409;28;19916;-77
2021/07/30 11:21:31;;;;;;;;;;;19.70;61.00;;;;;;5008886;28;19905;-79
2021/07/30 11:23:57;;;;;;;;;;;19.60;59.90;;;;;;5011366;28;19909;-79
2021/07/30 11:26:22;;;;;;;;;;;19.40;61.10;;;;;;5010994;28;19956;-78
2021/07/30 11:28:59;;;;;;;;;;;19.20;62.50;;;;;;5010518;28;19937;-77
2021/07/30 11:31:24;;;;;;;;;;;19.10;64.10;;;;;;5009642;28;20004;-76
2021/07/30 11:33:50;;;;;;;;;;;19.00;64.40;;;;;;5008304;28;20263;-79
2021/07/30 11:36:16;;;;;;;;;;;18.90;65.10;;;;;;5007749;28;20436;-78
2021/07/30 11:38:47;;;;;;;;;;;19.20;66.10;;;;;;5003753;28;19996;-80
2021/07/30 11:41:14;;;;;;;;;;;19.10;65.30;;;;;;5005215;28;19916;-80
2021/07/30 11:44:15;;;;;;;;;;;19.00;66.20;;;;;;5010795;28;19924;-78
2021/07/30 11:46:41;;;;;;;;;;;18.80;66.20;;;;;;4969631;28;19953;-79
2021/07/30 11:49:08;;;;;;;;;;;18.70;64.00;;;;;;4972986;28;19914;-79
2021/07/30 11:51:40;;;;;;;;;;;18.70;64.20;;;;;;4976018;28;19917;-79
2021/07/30 11:54:05;;;;;;;;;;;18.80;64.10;;;;;;4973494;28;19918;-78
2021/07/30 11:56:43;;;;;;;;;;;18.90;64.20;;;;;;4961068;28;19913;-77
2021/07/30 11:59:08;;;;;;;;;;;19.10;63.40;;;;;;4972439;28;19996;-76
2021/07/30 12:01:34;;;;;;;;;;;19.00;62.70;;;;;;4976043;28;19965;-75
2021/07/30 12:04:09;;;;;;;;;;;19.20;62.90;;;;;;4960640;28;19935;-76
2021/07/30 12:06:46;;;;;;;;;;;19.30;62.40;;;;;;4963259;28;20000;-76
2021/07/30 12:09:12;;;;;;;;;;;19.70;62.10;;;;;;4971409;28;20475;-76
2021/07/30 12:11:42;;;;;;;;;;;19.80;61.00;;;;;;4987644;28;19910;-75
2021/07/30 12:14:08;;;;;;;;;;;19.80;61.30;;;;;;4979838;28;20396;-75
2021/07/30 12:16:34;;;;;;;;;;;19.80;61.30;;;;;;4990268;28;19917;-76
2021/07/30 12:18:59;;;;;;;;;;;19.80;60.90;;;;;;4971199;28;19906;-74
2021/07/30 12:21:25;;;;;;;;;;;20.00;61.30;;;;;;4999448;28;20382;-75
2021/07/30 12:23:50;;;;;;;;;;;20.10;61.60;;;;;;5007999;28;19909;-75
2021/07/30 12:26:29;;;;;;;;;;;20.30;61.70;;;;;;5008112;28;20378;-74
2021/07/30 12:28:54;;;;;;;;;;;20.30;60.90;;;;;;5009785;28;20019;-75
2021/07/30 12:31:21;;;;;;;;;;;20.70;61.80;;;;;;5010586;28;20353;-75
2021/07/30 12:33:47;;;;;;;;;;;20.90;59.90;;;;;;5008849;28;20279;-75
2021/07/30 12:36:15;;;;;;;;;;;21.20;58.60;;;;;;5009085;28;19956;-75
2021/07/30 12:38:50;;;;;;;;;;;21.50;60.00;;;;;;5011289;28;19932;-74
2021/07/30 12:41:17;;;;;;;;;;;21.80;58.10;;;;;;5013126;28;19992;-75
2021/07/30 12:43:44;;;;;;;;;;;21.90;55.60;;;;;;5014555;28;20285;-75
2021/07/30 12:46:10;;;;;;;;;;;21.80;54.00;;;;;;5015508;28;19909;-75
2021/07/30 12:48:45;;;;;;;;;;;21.60;54.80;;;;;;5006385;28;20286;-75
2021/07/30 12:51:21;;;;;;;;;;;21.60;55.50;;;;;;5006327;28;19909;-75
2021/07/30 12:53:57;;;;;;;;;;;21.40;54.30;;;;;;5014795;28;19960;-75
2021/07/30 12:56:22;;;;;;;;;;;21.50;54.00;;;;;;5012974;28;19956;-75
2021/07/30 12:58:52;;;;;;;;;;;21.60;54.50;;;;;;5014902;28;20382;-75
2021/07/30 13:01:17;;;;;;;;;;;21.70;54.20;;;;;;5014261;28;19964;-75
2021/07/30 13:03:46;;;;;;;;;;;21.80;53.40;;;;;;5011536;28;19909;-74
2021/07/30 13:06:16;;;;;;;;;;;21.60;53.30;;;;;;5011215;28;20354;-75
2021/07/30 13:08:41;;;;;;;;;;;21.30;54.20;;;;;;5011641;28;20384;-74
2021/07/30 13:11:07;;;;;;;;;;;21.30;55.60;;;;;;5011316;28;20004;-74
2021/07/30 13:13:33;;;;;;;;;;;21.50;55.60;;;;;;5015525;28;19917;-74
2021/07/30 13:15:59;;;;;;;;;;;21.60;54.80;;;;;;5012390;28;19909;-74
2021/07/30 13:18:24;;;;;;;;;;;21.70;53.60;;;;;;5012362;28;19913;-74
2021/07/30 13:20:50;;;;;;;;;;;22.10;53.60;;;;;;5012400;28;19909;-75
2021/07/30 13:23:16;;;;;;;;;;;22.10;51.20;;;;;;5012507;28;19909;-75
2021/07/30 13:25:42;;;;;;;;;;;22.10;50.60;;;;;;5014878;28;19940;-75
2021/07/30 13:28:07;;;;;;;;;;;21.90;50.20;;;;;;5012450;28;19940;-75
2021/07/30 13:30:33;;;;;;;;;;;21.90;51.80;;;;;;5011616;28;19920;-75
2021/07/30 13:32:59;;;;;;;;;;;21.90;50.80;;;;;;5011100;28;19919;-74
2021/07/30 13:35:26;;;;;;;;;;;22.10;51.10;;;;;;5011475;28;19926;-75
2021/07/30 13:37:52;;;;;;;;;;;22.20;49.60;;;;;;5014396;28;19910;-75
2021/07/30 13:40:17;;;;;;;;;;;22.00;49.70;;;;;;5015141;28;20007;-83
2021/07/30 13:42:43;;;;;;;;;;;22.00;49.80;;;;;;5010965;28;19913;-76
2021/07/30 13:45:08;;;;;;;;;;;22.00;50.30;;;;;;5011770;28;19936;-76
2021/07/30 13:47:34;;;;;;;;;;;22.20;51.10;;;;;;5011506;28;19952;-76
2021/07/30 13:49:59;;;;;;;;;;;22.20;50.90;;;;;;5011355;28;19917;-76
2021/07/30 13:52:25;;;;;;;;;;;22.30;51.50;;;;;;5014574;28;19909;-75
2021/07/30 13:54:50;;;;;;;;;;;22.20;50.60;;;;;;5010255;28;19920;-75
2021/07/30 13:57:16;;;;;;;;;;;22.30;50.90;;;;;;5011320;28;19913;-76
2021/07/30 13:59:41;;;;;;;;;;;22.40;50.40;;;;;;5013025;28;20285;-76
2021/07/30 14:02:08;;;;;;;;;;;22.70;51.10;;;;;;5011845;28;20363;-78
2021/07/30 14:04:35;;;;;;;;;;;23.00;48.90;;;;;;5010843;28;19912;-75
2021/07/30 14:07:03;;;;;;;;;;;22.90;48.70;;;;;;5012635;28;19905;-76
2021/07/30 14:09:36;;;;;;;;;;;22.80;48.70;;;;;;5010625;28;19916;-75
2021/07/30 14:12:02;;;;;;;;;;;22.70;49.80;;;;;;5011152;28;19906;-76
2021/07/30 14:14:30;;;;;;;;;;;22.70;49.40;;;;;;5011571;28;19933;-74
2021/07/30 14:16:55;;;;;;;;;;;22.60;50.00;;;;;;5011697;28;20375;-78
2021/07/30 14:19:21;;;;;;;;;;;22.70;50.30;;;;;;5013007;28;19909;-77
2021/07/30 14:21:46;;;;;;;;;;;22.70;49.70;;;;;;5011473;28;19913;-76
2021/07/30 14:24:12;;;;;;;;;;;22.80;50.60;;;;;;5011065;28;19910;-76